createdAt,value
2022-12-03T00:01:34.451Z,2.78
2022-12-03T00:04:37.496Z,2.62
2022-12-03T00:07:39.211Z,2.75
2022-12-03T00:10:40.981Z,2.83
2022-12-03T00:13:42.645Z,2.64
2022-12-03T00:16:44.345Z,2.72
2022-12-03T00:19:47.397Z,2.67
2022-12-03T00:22:49.141Z,2.64
2022-12-03T00:25:50.874Z,2.66
2022-12-03T00:28:52.824Z,2.76
2022-12-03T00:31:54.440Z,2.74
2022-12-03T00:34:57.452Z,2.75
2022-12-03T00:37:59.106Z,2.78
2022-12-03T00:41:00.847Z,2.72
2022-12-03T00:44:02.430Z,2.86
2022-12-03T00:47:04.238Z,2.79
2022-12-03T00:50:08.722Z,2.69
2022-12-03T00:53:10.337Z,2.82
2022-12-03T00:56:12.030Z,2.70
2022-12-03T00:59:13.765Z,2.69
2022-12-03T01:02:15.494Z,2.77
2022-12-03T01:05:18.649Z,2.75
2022-12-03T01:08:20.425Z,2.77
2022-12-03T01:11:37.427Z,2.79
2022-12-03T01:14:39.159Z,2.76
2022-12-03T01:17:40.829Z,2.78
2022-12-03T01:20:43.873Z,2.87
2022-12-03T01:23:48.117Z,2.87
2022-12-03T01:26:49.814Z,2.76
2022-12-03T01:29:51.512Z,2.69
2022-12-03T01:32:53.127Z,2.73
2022-12-03T01:35:56.156Z,2.76
2022-12-03T01:38:57.820Z,2.76
2022-12-03T01:41:59.814Z,2.58
2022-12-03T01:45:03.586Z,2.68
2022-12-03T01:48:05.692Z,2.63
2022-12-03T01:51:08.660Z,2.74
2022-12-03T01:54:16.581Z,2.67
2022-12-03T01:57:21.542Z,2.75
2022-12-03T02:00:27.024Z,2.56
2022-12-03T02:03:29.010Z,2.67
2022-12-03T02:06:32.114Z,2.60
2022-12-03T02:09:33.740Z,2.68
2022-12-03T02:12:38.544Z,2.72
2022-12-03T02:15:40.590Z,2.58
2022-12-03T02:18:43.241Z,2.69
2022-12-03T02:21:58.888Z,2.64
2022-12-03T02:25:09.845Z,2.75
2022-12-03T02:28:11.559Z,2.70
2022-12-03T02:31:13.350Z,2.51
2022-12-03T02:34:34.294Z,2.56
2022-12-03T02:37:37.204Z,2.64
2022-12-03T02:40:42.043Z,2.47
2022-12-03T02:43:43.703Z,2.46
2022-12-03T02:46:45.364Z,2.44
2022-12-03T02:49:47.279Z,2.39
2022-12-03T02:52:49.791Z,2.36
2022-12-03T02:55:54.477Z,2.45
2022-12-03T02:58:59.831Z,2.43
2022-12-03T03:02:01.779Z,2.36
2022-12-03T03:05:05.203Z,2.47
2022-12-03T03:08:08.841Z,2.38
2022-12-03T03:11:12.293Z,2.47
2022-12-03T03:14:13.994Z,2.45
2022-12-03T03:17:15.755Z,2.50
2022-12-03T03:20:18.493Z,2.47
2022-12-03T03:23:22.621Z,2.52
2022-12-03T03:26:26.065Z,2.51
2022-12-03T03:29:27.956Z,2.50
2022-12-03T03:32:30.542Z,2.59
2022-12-03T03:35:32.691Z,2.50
2022-12-03T03:38:36.453Z,2.45
2022-12-03T03:41:41.060Z,2.53
2022-12-03T03:44:42.812Z,2.48
2022-12-03T03:47:44.996Z,2.54
2022-12-03T03:50:47.284Z,2.54
2022-12-03T03:53:50.359Z,2.51
2022-12-03T03:56:53.567Z,2.48
2022-12-03T03:59:58.838Z,2.52
2022-12-03T04:03:00.490Z,2.52
2022-12-03T04:06:02.256Z,2.61
2022-12-03T04:09:03.950Z,2.70
2022-12-03T04:12:26.091Z,2.64
2022-12-03T04:15:28.470Z,2.68
2022-12-03T04:18:45.353Z,2.71
2022-12-03T04:22:05.795Z,2.72
2022-12-03T04:25:39.076Z,2.71
2022-12-03T04:28:51.136Z,2.57
2022-12-03T04:32:11.321Z,2.56
2022-12-03T04:35:31.567Z,2.66
2022-12-03T04:38:33.403Z,2.57
2022-12-03T04:41:35.069Z,2.48
2022-12-03T04:44:38.127Z,2.59
2022-12-03T04:47:40.137Z,2.55
2022-12-03T04:50:42.054Z,2.59
2022-12-03T04:53:46.378Z,2.69
2022-12-03T04:56:48.353Z,2.62
2022-12-03T04:59:51.380Z,2.44
2022-12-03T05:02:53.254Z,2.47
2022-12-03T05:05:54.882Z,2.42
2022-12-03T05:08:56.527Z,2.57
2022-12-03T05:11:58.957Z,2.44
2022-12-03T05:15:02.020Z,2.52
2022-12-03T05:18:03.818Z,2.50
2022-12-03T05:21:06.241Z,2.55
2022-12-03T05:24:08.080Z,2.45
2022-12-03T05:27:09.775Z,2.49
2022-12-03T05:30:13.395Z,2.53
2022-12-03T05:33:15.054Z,2.48
2022-12-03T05:36:16.856Z,2.42
2022-12-03T05:39:18.624Z,2.42
2022-12-03T05:42:38.879Z,2.35
2022-12-03T05:45:43.465Z,2.45
2022-12-03T05:48:45.384Z,2.42
2022-12-03T05:51:46.990Z,2.41
2022-12-03T05:54:48.662Z,2.29
2022-12-03T05:57:50.453Z,2.40
2022-12-03T06:00:53.414Z,2.37
2022-12-03T06:03:55.078Z,2.42
2022-12-03T06:06:56.786Z,2.31
2022-12-03T06:09:58.385Z,2.11
2022-12-03T06:13:00.880Z,2.25
2022-12-03T06:16:04.276Z,2.26
2022-12-03T06:19:05.927Z,2.18
2022-12-03T06:22:07.612Z,2.17
2022-12-03T06:25:10.334Z,2.23
2022-12-03T06:28:12.026Z,2.22
2022-12-03T06:31:15.048Z,2.29
2022-12-03T06:34:16.758Z,2.19
2022-12-03T06:37:18.903Z,2.21
2022-12-03T06:40:20.642Z,2.28
2022-12-03T06:43:22.351Z,2.18
2022-12-03T06:46:25.520Z,2.23
2022-12-03T06:49:27.429Z,2.29
2022-12-03T06:52:29.073Z,2.28
2022-12-03T06:55:30.723Z,2.23
2022-12-03T06:58:32.405Z,2.18
2022-12-03T07:01:35.458Z,2.14
2022-12-03T07:04:39.822Z,2.02
2022-12-03T07:07:43.784Z,2.01
2022-12-03T07:10:45.434Z,2.08
2022-12-03T07:13:47.081Z,2.01
2022-12-03T07:16:50.089Z,2.01
2022-12-03T07:19:51.719Z,2.02
2022-12-03T07:22:53.295Z,2.16
2022-12-03T07:25:54.959Z,2.27
2022-12-03T07:28:57.108Z,2.16
2022-12-03T07:32:00.102Z,2.12
2022-12-03T07:35:07.139Z,2.27
2022-12-03T07:38:08.816Z,2.30
2022-12-03T07:41:10.449Z,2.41
2022-12-03T07:44:14.665Z,2.45
2022-12-03T07:47:18.372Z,2.46
2022-12-03T07:50:20.039Z,2.43
2022-12-03T07:53:22.143Z,2.44
2022-12-03T07:56:23.797Z,2.45
2022-12-03T07:59:25.471Z,2.42
2022-12-03T08:02:28.536Z,2.58
2022-12-03T08:05:30.268Z,2.58
2022-12-03T08:08:31.987Z,2.55
2022-12-03T08:11:33.892Z,2.60
2022-12-03T08:14:35.796Z,2.63
2022-12-03T08:17:40.291Z,2.79
2022-12-03T08:20:43.844Z,2.83
2022-12-03T08:23:45.819Z,2.83
2022-12-03T08:26:49.479Z,2.84
2022-12-03T08:30:01.229Z,2.79
2022-12-03T08:33:13.270Z,2.90
2022-12-03T08:36:19.754Z,3.07
2022-12-03T08:39:30.563Z,2.89
2022-12-03T08:42:43.208Z,3.06
2022-12-03T08:45:45.484Z,3.19
2022-12-03T08:48:49.617Z,3.26
2022-12-03T08:51:56.010Z,3.11
2022-12-03T08:54:57.968Z,3.38
2022-12-03T08:58:00.230Z,3.45
2022-12-03T09:01:15.590Z,3.55
2022-12-03T09:04:24.778Z,3.37
2022-12-03T09:07:26.619Z,3.29
2022-12-03T09:10:28.431Z,3.38
2022-12-03T09:13:30.110Z,3.51
2022-12-03T09:16:32.508Z,3.47
2022-12-03T09:19:35.585Z,3.62
2022-12-03T09:22:37.353Z,3.62
2022-12-03T09:25:38.995Z,3.59
2022-12-03T09:28:40.711Z,3.77
2022-12-03T09:31:42.610Z,3.67
2022-12-03T09:34:47.024Z,3.61
2022-12-03T09:37:48.681Z,3.80
2022-12-03T09:40:50.731Z,3.95
2022-12-03T09:44:13.919Z,3.53
2022-12-03T09:47:15.373Z,3.64
2022-12-03T09:50:21.555Z,3.69
2022-12-03T09:53:26.808Z,3.89
2022-12-03T09:56:29.066Z,3.67
2022-12-03T09:59:33.173Z,3.77
2022-12-03T10:02:35.123Z,3.86
2022-12-03T10:05:39.241Z,3.86
2022-12-03T10:08:43.206Z,3.98
2022-12-03T10:11:44.924Z,4.00
2022-12-03T10:14:46.549Z,4.02
2022-12-03T10:17:50.331Z,4.03
2022-12-03T10:20:53.868Z,4.12
2022-12-03T10:24:23.366Z,4.02
2022-12-03T10:27:30.291Z,4.15
2022-12-03T10:30:32.572Z,4.15
2022-12-03T10:33:36.272Z,3.97
2022-12-03T10:36:39.386Z,4.32
2022-12-03T10:39:57.820Z,4.46
2022-12-03T10:43:20.237Z,4.56
2022-12-03T10:46:22.894Z,4.48
2022-12-03T10:49:24.641Z,4.58
2022-12-03T10:52:27.831Z,4.51
2022-12-03T10:55:34.267Z,4.34
2022-12-03T10:58:37.912Z,4.64
2022-12-03T11:01:39.679Z,4.49
2022-12-03T11:04:41.353Z,4.38
2022-12-03T11:07:44.783Z,4.40
2022-12-03T11:10:55.367Z,4.10
2022-12-03T11:13:59.103Z,4.33
2022-12-03T11:17:07.941Z,4.48
2022-12-03T11:20:12.346Z,4.51
2022-12-03T11:24:18.381Z,4.33
2022-12-03T11:27:20.831Z,4.16
2022-12-03T11:31:01.338Z,4.22
2022-12-03T11:34:49.128Z,4.31
2022-12-03T11:37:51.329Z,4.29
2022-12-03T11:41:08.788Z,4.32
2022-12-03T11:44:26.198Z,4.62
2022-12-03T11:47:29.184Z,4.43
2022-12-03T11:50:39.720Z,4.69
2022-12-03T11:53:43.447Z,4.60
2022-12-03T11:56:51.327Z,4.70
2022-12-03T12:00:05.762Z,4.55
2022-12-03T12:03:22.411Z,4.40
2022-12-03T12:06:24.221Z,4.33
2022-12-03T12:09:49.670Z,4.48
2022-12-03T12:12:55.062Z,4.43
2022-12-03T12:15:57.347Z,4.63
2022-12-03T12:19:29.229Z,4.65
2022-12-03T12:22:31.446Z,4.61
2022-12-03T12:25:40.827Z,4.69
2022-12-03T12:28:43.888Z,4.50
2022-12-03T12:31:49.482Z,4.38
2022-12-03T12:34:57.429Z,4.49
2022-12-03T12:38:11.422Z,4.42
2022-12-03T12:41:13.249Z,4.24
2022-12-03T12:44:16.419Z,4.34
2022-12-03T12:47:18.209Z,4.30
2022-12-03T12:50:20.021Z,4.37
2022-12-03T12:53:27.110Z,4.52
2022-12-03T12:56:32.796Z,4.56
2022-12-03T12:59:35.977Z,4.38
2022-12-03T13:02:43.145Z,4.43
2022-12-03T13:05:47.768Z,4.43
2022-12-03T13:08:50.729Z,4.44
2022-12-03T13:11:54.230Z,4.41
2022-12-03T13:14:59.320Z,4.43
2022-12-03T13:18:01.537Z,4.34
2022-12-03T13:21:13.519Z,4.35
2022-12-03T13:24:29.825Z,4.33
2022-12-03T13:27:31.787Z,4.23
2022-12-03T13:30:34.841Z,4.35
2022-12-03T13:33:36.658Z,4.28
2022-12-03T13:36:42.562Z,4.33
2022-12-03T13:39:47.835Z,4.39
2022-12-03T13:42:49.616Z,4.33
2022-12-03T13:45:54.157Z,4.37
2022-12-03T13:49:00.256Z,4.36
2022-12-03T13:52:10.755Z,4.22
2022-12-03T13:55:21.266Z,4.12
2022-12-03T13:58:23.000Z,4.27
2022-12-03T14:01:26.576Z,4.35
2022-12-03T14:04:28.492Z,4.32
2022-12-03T14:07:30.168Z,4.39
2022-12-03T14:10:32.292Z,4.28
2022-12-03T14:13:33.973Z,4.07
2022-12-03T14:16:37.167Z,4.22
2022-12-03T14:19:38.933Z,4.23
2022-12-03T14:22:40.639Z,4.11
2022-12-03T14:25:46.887Z,4.08
2022-12-03T14:28:48.585Z,4.15
2022-12-03T14:31:51.677Z,4.22
2022-12-03T14:34:53.437Z,4.07
2022-12-03T14:37:55.068Z,4.00
2022-12-03T14:40:56.727Z,4.04
2022-12-03T14:43:58.362Z,4.05
2022-12-03T14:47:01.494Z,4.06
2022-12-03T14:50:05.154Z,4.14
2022-12-03T14:53:06.925Z,4.14
2022-12-03T14:56:08.607Z,4.04
2022-12-03T14:59:10.311Z,4.00
2022-12-03T15:02:13.469Z,4.05
2022-12-03T15:05:15.413Z,3.98
2022-12-03T15:08:17.105Z,3.87
2022-12-03T15:11:18.829Z,3.94
2022-12-03T15:14:20.439Z,3.98
2022-12-03T15:17:31.248Z,4.01
2022-12-03T15:20:35.424Z,4.04
2022-12-03T15:23:37.198Z,3.94
2022-12-03T15:26:38.871Z,3.87
2022-12-03T15:29:41.103Z,3.80
2022-12-03T15:32:44.160Z,3.91
2022-12-03T15:35:45.945Z,3.81
2022-12-03T15:38:47.733Z,3.88
2022-12-03T15:41:49.452Z,3.88
2022-12-03T15:44:51.107Z,3.86
2022-12-03T15:47:54.069Z,3.72
2022-12-03T15:50:55.746Z,3.78
2022-12-03T15:53:57.382Z,3.83
2022-12-03T15:56:59.163Z,3.80
2022-12-03T16:00:00.991Z,3.69
2022-12-03T16:03:04.095Z,3.84
2022-12-03T16:06:06.278Z,3.81
2022-12-03T16:09:07.993Z,3.77
2022-12-03T16:12:09.624Z,3.81
2022-12-03T16:15:11.449Z,3.75
2022-12-03T16:18:14.424Z,3.80
2022-12-03T16:21:16.178Z,3.66
2022-12-03T16:24:17.858Z,3.76
2022-12-03T16:27:22.808Z,3.76
2022-12-03T16:30:27.277Z,3.71
2022-12-03T16:33:30.486Z,3.66
2022-12-03T16:36:32.124Z,3.68
2022-12-03T16:39:33.919Z,3.67
2022-12-03T16:42:37.194Z,3.73
2022-12-03T16:46:02.689Z,3.74
2022-12-03T16:49:07.867Z,3.78
2022-12-03T16:52:09.567Z,3.78
2022-12-03T16:55:11.251Z,3.68
2022-12-03T16:58:12.877Z,3.73
2022-12-03T17:01:14.783Z,3.74
2022-12-03T17:04:17.954Z,3.69
2022-12-03T17:07:21.441Z,3.70
2022-12-03T17:10:23.262Z,3.64
2022-12-03T17:13:25.104Z,3.75
2022-12-03T17:16:27.147Z,3.69
2022-12-03T17:19:30.280Z,3.70
2022-12-03T17:22:31.945Z,3.65
2022-12-03T17:25:34.452Z,3.70
2022-12-03T17:28:36.198Z,3.70
2022-12-03T17:31:41.889Z,3.68
2022-12-03T17:34:45.703Z,3.71
2022-12-03T17:37:47.274Z,3.62
2022-12-03T17:40:48.918Z,3.65
2022-12-03T17:43:50.657Z,3.66
2022-12-03T17:46:52.519Z,3.62
2022-12-03T17:49:56.120Z,3.67
2022-12-03T17:52:58.472Z,3.65
2022-12-03T17:56:00.196Z,3.60
2022-12-03T17:59:01.991Z,3.58
2022-12-03T18:02:04.005Z,3.48
2022-12-03T18:05:07.705Z,3.55
2022-12-03T18:08:09.474Z,3.64
2022-12-03T18:11:11.135Z,3.60
2022-12-03T18:14:13.414Z,3.53
2022-12-03T18:17:15.120Z,3.58
2022-12-03T18:20:18.339Z,3.66
2022-12-03T18:23:20.251Z,3.60
2022-12-03T18:26:23.983Z,3.56
2022-12-03T18:29:25.803Z,3.60
2022-12-03T18:32:29.853Z,3.52
2022-12-03T18:35:33.520Z,3.64
2022-12-03T18:38:35.174Z,3.63
2022-12-03T18:41:36.887Z,3.53
2022-12-03T18:44:38.616Z,3.48
2022-12-03T18:47:40.416Z,3.49
2022-12-03T18:50:44.451Z,3.58
2022-12-03T18:53:46.536Z,3.62
2022-12-03T18:56:48.187Z,3.61
2022-12-03T18:59:49.835Z,3.45
2022-12-03T19:03:02.980Z,3.51
2022-12-03T19:06:17.095Z,3.47
2022-12-03T19:09:20.453Z,3.34
2022-12-03T19:12:22.142Z,3.47
2022-12-03T19:15:24.163Z,3.49
2022-12-03T19:18:26.049Z,3.52
2022-12-03T19:21:33.560Z,3.45
2022-12-03T19:24:35.598Z,3.41
2022-12-03T19:27:37.265Z,3.54
2022-12-03T19:30:38.954Z,3.49
2022-12-03T19:33:42.471Z,3.45
2022-12-03T19:36:45.845Z,3.44
2022-12-03T19:39:47.720Z,3.36
2022-12-03T19:42:49.364Z,3.55
2022-12-03T19:45:51.118Z,3.50
2022-12-03T19:48:54.387Z,3.52
2022-12-03T19:51:57.436Z,3.55
2022-12-03T19:54:59.227Z,3.42
2022-12-03T19:58:00.971Z,3.35
2022-12-03T20:01:06.766Z,3.38
2022-12-03T20:04:09.331Z,3.37
2022-12-03T20:07:12.411Z,3.38
2022-12-03T20:10:14.206Z,3.41
2022-12-03T20:13:15.929Z,3.41
2022-12-03T20:16:17.665Z,3.28
2022-12-03T20:19:22.211Z,3.21
2022-12-03T20:22:25.615Z,3.08
2022-12-03T20:25:27.303Z,3.07
2022-12-03T20:28:29.387Z,3.29
2022-12-03T20:31:32.502Z,3.29
2022-12-03T20:34:35.931Z,3.15
2022-12-03T20:37:39.139Z,3.32
2022-12-03T20:40:40.826Z,3.12
2022-12-03T20:43:42.894Z,3.24
2022-12-03T20:46:44.845Z,3.23
2022-12-03T20:49:46.800Z,3.26
2022-12-03T20:53:16.305Z,3.13
2022-12-03T20:56:18.207Z,3.10
2022-12-03T20:59:20.261Z,3.01
2022-12-03T21:02:22.118Z,3.07
2022-12-03T21:05:23.857Z,3.04
2022-12-03T21:08:40.631Z,3.11
2022-12-03T21:11:43.074Z,3.11
2022-12-03T21:14:44.885Z,3.07
2022-12-03T21:17:46.554Z,3.23
2022-12-03T21:20:48.265Z,3.16
2022-12-03T21:23:51.502Z,3.13
2022-12-03T21:26:53.324Z,3.07
2022-12-03T21:29:55.273Z,3.06
2022-12-03T21:32:57.691Z,3.02
2022-12-03T21:36:00.499Z,3.03
2022-12-03T21:39:04.195Z,3.02
2022-12-03T21:42:34.288Z,3.12
2022-12-03T21:45:27.690Z,3.12
2022-12-03T21:48:29.369Z,2.93
2022-12-03T21:51:31.141Z,2.95
2022-12-03T21:54:34.262Z,2.90
2022-12-03T21:57:36.584Z,2.89
2022-12-03T22:00:38.312Z,2.91
2022-12-03T22:03:39.938Z,2.78
2022-12-03T22:06:41.720Z,2.69
2022-12-03T22:09:44.776Z,2.83
2022-12-03T22:12:46.512Z,2.79
2022-12-03T22:15:48.220Z,2.91
2022-12-03T22:18:49.919Z,2.80
2022-12-03T22:21:51.669Z,2.73
2022-12-03T22:24:54.755Z,2.82
2022-12-03T22:27:56.449Z,2.85
2022-12-03T22:30:58.380Z,2.80
2022-12-03T22:34:00.179Z,2.63
2022-12-03T22:37:01.810Z,2.67
2022-12-03T22:40:06.453Z,2.78
2022-12-03T22:43:08.082Z,2.86
2022-12-03T22:46:12.599Z,2.78
2022-12-03T22:49:14.716Z,2.74
2022-12-03T22:52:16.505Z,2.70
2022-12-03T22:55:19.521Z,2.72
2022-12-03T22:58:21.391Z,2.64
2022-12-03T23:01:25.235Z,2.60
2022-12-03T23:04:27.003Z,2.66
2022-12-03T23:07:28.793Z,2.53
2022-12-03T23:10:34.282Z,2.51
2022-12-03T23:13:35.974Z,2.58
2022-12-03T23:16:38.535Z,2.37
2022-12-03T23:19:40.238Z,2.42
2022-12-03T23:22:41.987Z,2.40
2022-12-03T23:25:45.109Z,2.28
2022-12-03T23:28:47.437Z,2.27
2022-12-03T23:31:49.160Z,2.44
2022-12-03T23:34:53.199Z,2.42
2022-12-03T23:37:54.874Z,2.55
2022-12-03T23:41:02.798Z,2.50
2022-12-03T23:44:04.537Z,2.63
2022-12-03T23:47:06.311Z,2.62
2022-12-03T23:50:08.486Z,2.47
2022-12-03T23:53:10.109Z,2.59
2022-12-03T23:56:15.005Z,2.58
2022-12-03T23:59:16.597Z,2.63
